sensor_id;sensor_type;location;lat;lon;timestamp;P1;durP1;ratioP1;P2;durP2;ratioP2
17361;SDS011;8798;51.938;4.348;2023-08-21T00:01:40;3.00;;;1.00;;
17361;SDS011;8798;51.938;4.348;2023-08-21T00:04:10;2.00;;;0.87;;
17361;SDS011;8798;51.938;4.348;2023-08-21T00:06:38;2.07;;;1.10;;
17361;SDS011;8798;51.938;4.348;2023-08-21T00:09:06;1.33;;;0.90;;
17361;SDS011;8798;51.938;4.348;2023-08-21T00:11:34;3.83;;;1.17;;
17361;SDS011;8798;51.938;4.348;2023-08-21T00:14:02;1.70;;;0.90;;
17361;SDS011;8798;51.938;4.348;2023-08-21T00:16:30;3.07;;;1.30;;
17361;SDS011;8798;51.938;4.348;2023-08-21T00:18:58;2.83;;;1.03;;
17361;SDS011;8798;51.938;4.348;2023-08-21T00:21:28;2.17;;;1.00;;
17361;SDS011;8798;51.938;4.348;2023-08-21T00:23:56;4.20;;;1.10;;
17361;SDS011;8798;51.938;4.348;2023-08-21T00:26:23;2.40;;;1.00;;
17361;SDS011;8798;51.938;4.348;2023-08-21T00:28:51;2.70;;;0.97;;
17361;SDS011;8798;51.938;4.348;2023-08-21T00:31:19;4.13;;;1.00;;
17361;SDS011;8798;51.938;4.348;2023-08-21T00:33:47;1.87;;;1.00;;
17361;SDS011;8798;51.938;4.348;2023-08-21T00:36:15;3.50;;;1.10;;
17361;SDS011;8798;51.938;4.348;2023-08-21T00:38:45;3.07;;;1.13;;
17361;SDS011;8798;51.938;4.348;2023-08-21T00:41:13;1.50;;;1.10;;
17361;SDS011;8798;51.938;4.348;2023-08-21T00:43:41;2.23;;;1.27;;
17361;SDS011;8798;51.938;4.348;2023-08-21T00:46:09;2.47;;;1.20;;
17361;SDS011;8798;51.938;4.348;2023-08-21T00:48:38;2.50;;;1.20;;
17361;SDS011;8798;51.938;4.348;2023-08-21T00:51:06;1.90;;;1.30;;
17361;SDS011;8798;51.938;4.348;2023-08-21T00:53:34;2.20;;;1.00;;
17361;SDS011;8798;51.938;4.348;2023-08-21T00:56:04;2.47;;;1.13;;
17361;SDS011;8798;51.938;4.348;2023-08-21T00:58:32;2.70;;;1.23;;
17361;SDS011;8798;51.938;4.348;2023-08-21T01:01:00;4.63;;;1.40;;
17361;SDS011;8798;51.938;4.348;2023-08-21T01:03:28;1.30;;;1.00;;
17361;SDS011;8798;51.938;4.348;2023-08-21T01:05:57;2.50;;;1.20;;
17361;SDS011;8798;51.938;4.348;2023-08-21T01:08:26;2.23;;;1.10;;
17361;SDS011;8798;51.938;4.348;2023-08-21T01:10:58;2.03;;;1.20;;
17361;SDS011;8798;51.938;4.348;2023-08-21T01:13:39;3.00;;;1.00;;
17361;SDS011;8798;51.938;4.348;2023-08-21T01:16:15;2.30;;;1.20;;
17361;SDS011;8798;51.938;4.348;2023-08-21T01:18:43;2.10;;;1.10;;
17361;SDS011;8798;51.938;4.348;2023-08-21T01:21:15;2.87;;;1.10;;
17361;SDS011;8798;51.938;4.348;2023-08-21T01:23:45;2.80;;;1.27;;
17361;SDS011;8798;51.938;4.348;2023-08-21T01:26:13;2.93;;;1.27;;
17361;SDS011;8798;51.938;4.348;2023-08-21T01:28:41;2.88;;;1.20;;
17361;SDS011;8798;51.938;4.348;2023-08-21T01:31:11;2.33;;;1.17;;
17361;SDS011;8798;51.938;4.348;2023-08-21T01:33:44;1.60;;;1.10;;
17361;SDS011;8798;51.938;4.348;2023-08-21T01:36:15;2.20;;;0.93;;
17361;SDS011;8798;51.938;4.348;2023-08-21T01:38:44;1.50;;;1.00;;
17361;SDS011;8798;51.938;4.348;2023-08-21T01:41:12;1.75;;;1.00;;
17361;SDS011;8798;51.938;4.348;2023-08-21T01:43:40;2.70;;;1.07;;
17361;SDS011;8798;51.938;4.348;2023-08-21T01:46:09;2.27;;;1.20;;
17361;SDS011;8798;51.938;4.348;2023-08-21T01:48:38;2.93;;;1.30;;
17361;SDS011;8798;51.938;4.348;2023-08-21T01:51:06;2.77;;;1.03;;
17361;SDS011;8798;51.938;4.348;2023-08-21T01:53:34;2.10;;;1.27;;
17361;SDS011;8798;51.938;4.348;2023-08-21T01:56:03;1.20;;;0.97;;
17361;SDS011;8798;51.938;4.348;2023-08-21T01:58:31;3.10;;;1.20;;
17361;SDS011;8798;51.938;4.348;2023-08-21T02:00:59;2.57;;;1.20;;
17361;SDS011;8798;51.938;4.348;2023-08-21T02:03:27;2.93;;;1.30;;
17361;SDS011;8798;51.938;4.348;2023-08-21T02:05:57;3.97;;;1.50;;
17361;SDS011;8798;51.938;4.348;2023-08-21T02:08:26;1.33;;;1.10;;
17361;SDS011;8798;51.938;4.348;2023-08-21T02:10:58;2.83;;;1.30;;
17361;SDS011;8798;51.938;4.348;2023-08-21T02:13:28;3.70;;;1.20;;
17361;SDS011;8798;51.938;4.348;2023-08-21T02:15:56;2.60;;;1.30;;
17361;SDS011;8798;51.938;4.348;2023-08-21T02:18:24;3.30;;;1.30;;
17361;SDS011;8798;51.938;4.348;2023-08-21T02:20:52;2.77;;;1.27;;
17361;SDS011;8798;51.938;4.348;2023-08-21T02:23:19;2.30;;;1.07;;
17361;SDS011;8798;51.938;4.348;2023-08-21T02:25:47;1.60;;;1.30;;
17361;SDS011;8798;51.938;4.348;2023-08-21T02:28:15;2.40;;;1.33;;
17361;SDS011;8798;51.938;4.348;2023-08-21T02:30:45;2.90;;;1.50;;
17361;SDS011;8798;51.938;4.348;2023-08-21T02:33:13;1.90;;;1.20;;
17361;SDS011;8798;51.938;4.348;2023-08-21T02:35:41;1.70;;;1.30;;
17361;SDS011;8798;51.938;4.348;2023-08-21T02:38:09;2.00;;;1.13;;
17361;SDS011;8798;51.938;4.348;2023-08-21T02:40:37;2.00;;;1.10;;
17361;SDS011;8798;51.938;4.348;2023-08-21T02:43:04;1.87;;;1.40;;
17361;SDS011;8798;51.938;4.348;2023-08-21T02:45:32;2.27;;;1.33;;
17361;SDS011;8798;51.938;4.348;2023-08-21T02:48:02;2.80;;;1.33;;
17361;SDS011;8798;51.938;4.348;2023-08-21T02:50:30;2.90;;;1.30;;
17361;SDS011;8798;51.938;4.348;2023-08-21T02:52:58;2.07;;;1.23;;
17361;SDS011;8798;51.938;4.348;2023-08-21T02:55:26;3.90;;;1.57;;
17361;SDS011;8798;51.938;4.348;2023-08-21T02:57:54;2.83;;;1.27;;
17361;SDS011;8798;51.938;4.348;2023-08-21T03:00:22;1.60;;;1.20;;
17361;SDS011;8798;51.938;4.348;2023-08-21T03:02:50;3.20;;;1.67;;
17361;SDS011;8798;51.938;4.348;2023-08-21T03:05:19;2.83;;;1.23;;
17361;SDS011;8798;51.938;4.348;2023-08-21T03:07:47;1.40;;;1.20;;
17361;SDS011;8798;51.938;4.348;2023-08-21T03:10:15;1.60;;;1.20;;
17361;SDS011;8798;51.938;4.348;2023-08-21T03:12:43;2.70;;;1.20;;
17361;SDS011;8798;51.938;4.348;2023-08-21T03:15:12;1.30;;;1.13;;
17361;SDS011;8798;51.938;4.348;2023-08-21T03:17:40;2.73;;;1.30;;
17361;SDS011;8798;51.938;4.348;2023-08-21T03:20:08;2.37;;;1.33;;
17361;SDS011;8798;51.938;4.348;2023-08-21T03:22:37;1.57;;;1.10;;
17361;SDS011;8798;51.938;4.348;2023-08-21T03:25:06;2.23;;;1.00;;
17361;SDS011;8798;51.938;4.348;2023-08-21T03:27:34;1.97;;;1.23;;
17361;SDS011;8798;51.938;4.348;2023-08-21T03:30:05;1.80;;;1.20;;
17361;SDS011;8798;51.938;4.348;2023-08-21T03:32:36;2.53;;;1.20;;
17361;SDS011;8798;51.938;4.348;2023-08-21T03:35:05;1.60;;;1.07;;
17361;SDS011;8798;51.938;4.348;2023-08-21T03:37:33;3.20;;;1.30;;
17361;SDS011;8798;51.938;4.348;2023-08-21T03:40:03;2.10;;;1.10;;
17361;SDS011;8798;51.938;4.348;2023-08-21T03:42:31;2.33;;;1.40;;
17361;SDS011;8798;51.938;4.348;2023-08-21T03:44:59;1.77;;;1.03;;
17361;SDS011;8798;51.938;4.348;2023-08-21T03:47:30;2.90;;;1.10;;
17361;SDS011;8798;51.938;4.348;2023-08-21T03:49:58;1.57;;;1.03;;
17361;SDS011;8798;51.938;4.348;2023-08-21T03:52:26;2.30;;;1.03;;
17361;SDS011;8798;51.938;4.348;2023-08-21T03:54:54;3.03;;;1.10;;
17361;SDS011;8798;51.938;4.348;2023-08-21T03:57:24;3.57;;;1.10;;
17361;SDS011;8798;51.938;4.348;2023-08-21T03:59:52;2.27;;;1.20;;
17361;SDS011;8798;51.938;4.348;2023-08-21T04:02:19;1.33;;;1.07;;
17361;SDS011;8798;51.938;4.348;2023-08-21T04:04:51;2.90;;;1.20;;
17361;SDS011;8798;51.938;4.348;2023-08-21T04:07:19;1.70;;;1.00;;
17361;SDS011;8798;51.938;4.348;2023-08-21T04:09:47;2.80;;;1.23;;
17361;SDS011;8798;51.938;4.348;2023-08-21T04:12:15;3.43;;;1.33;;
17361;SDS011;8798;51.938;4.348;2023-08-21T04:14:44;4.47;;;1.30;;
17361;SDS011;8798;51.938;4.348;2023-08-21T04:17:12;2.63;;;1.20;;
17361;SDS011;8798;51.938;4.348;2023-08-21T04:19:40;5.47;;;1.40;;
17361;SDS011;8798;51.938;4.348;2023-08-21T04:22:10;1.60;;;1.00;;
17361;SDS011;8798;51.938;4.348;2023-08-21T04:24:38;2.10;;;1.17;;
17361;SDS011;8798;51.938;4.348;2023-08-21T04:27:06;2.03;;;1.10;;
17361;SDS011;8798;51.938;4.348;2023-08-21T04:29:35;2.23;;;1.00;;
17361;SDS011;8798;51.938;4.348;2023-08-21T04:32:04;3.70;;;1.00;;
17361;SDS011;8798;51.938;4.348;2023-08-21T04:34:35;2.40;;;0.93;;
17361;SDS011;8798;51.938;4.348;2023-08-21T04:37:03;1.97;;;1.10;;
17361;SDS011;8798;51.938;4.348;2023-08-21T04:39:31;3.27;;;1.10;;
17361;SDS011;8798;51.938;4.348;2023-08-21T04:41:59;3.50;;;1.10;;
17361;SDS011;8798;51.938;4.348;2023-08-21T04:44:27;1.30;;;0.90;;
17361;SDS011;8798;51.938;4.348;2023-08-21T04:46:55;1.93;;;1.00;;
17361;SDS011;8798;51.938;4.348;2023-08-21T04:49:24;2.20;;;0.97;;
17361;SDS011;8798;51.938;4.348;2023-08-21T04:51:52;4.23;;;1.20;;
17361;SDS011;8798;51.938;4.348;2023-08-21T04:54:20;1.13;;;0.80;;
17361;SDS011;8798;51.938;4.348;2023-08-21T04:56:48;3.13;;;0.80;;
17361;SDS011;8798;51.938;4.348;2023-08-21T04:59:16;3.33;;;1.13;;
17361;SDS011;8798;51.938;4.348;2023-08-21T05:01:44;2.40;;;0.90;;
17361;SDS011;8798;51.938;4.348;2023-08-21T05:04:12;1.77;;;0.80;;
17361;SDS011;8798;51.938;4.348;2023-08-21T05:06:42;2.33;;;1.07;;
17361;SDS011;8798;51.938;4.348;2023-08-21T05:09:09;1.87;;;0.80;;
17361;SDS011;8798;51.938;4.348;2023-08-21T05:11:37;1.47;;;1.10;;
17361;SDS011;8798;51.938;4.348;2023-08-21T05:14:05;1.77;;;0.80;;
17361;SDS011;8798;51.938;4.348;2023-08-21T05:16:33;3.17;;;1.33;;
17361;SDS011;8798;51.938;4.348;2023-08-21T05:19:02;2.17;;;0.90;;
17361;SDS011;8798;51.938;4.348;2023-08-21T05:21:32;2.20;;;1.00;;
17361;SDS011;8798;51.938;4.348;2023-08-21T05:24:01;2.27;;;1.03;;
17361;SDS011;8798;51.938;4.348;2023-08-21T05:26:29;3.03;;;1.13;;
17361;SDS011;8798;51.938;4.348;2023-08-21T05:28:57;1.70;;;1.03;;
17361;SDS011;8798;51.938;4.348;2023-08-21T05:31:25;7.43;;;1.20;;
17361;SDS011;8798;51.938;4.348;2023-08-21T05:33:53;1.03;;;0.90;;
17361;SDS011;8798;51.938;4.348;2023-08-21T05:36:23;2.50;;;1.10;;
17361;SDS011;8798;51.938;4.348;2023-08-21T05:38:52;2.47;;;1.00;;
17361;SDS011;8798;51.938;4.348;2023-08-21T05:41:21;2.43;;;1.20;;
17361;SDS011;8798;51.938;4.348;2023-08-21T05:43:49;1.37;;;1.10;;
17361;SDS011;8798;51.938;4.348;2023-08-21T05:46:17;3.20;;;1.20;;
17361;SDS011;8798;51.938;4.348;2023-08-21T05:48:45;3.33;;;1.03;;
17361;SDS011;8798;51.938;4.348;2023-08-21T05:51:13;3.43;;;1.33;;
17361;SDS011;8798;51.938;4.348;2023-08-21T05:53:41;5.07;;;1.40;;
17361;SDS011;8798;51.938;4.348;2023-08-21T05:56:09;2.37;;;1.20;;
17361;SDS011;8798;51.938;4.348;2023-08-21T05:58:38;3.50;;;1.37;;
17361;SDS011;8798;51.938;4.348;2023-08-21T06:01:06;1.57;;;1.23;;
17361;SDS011;8798;51.938;4.348;2023-08-21T06:03:34;4.90;;;1.10;;
17361;SDS011;8798;51.938;4.348;2023-08-21T06:06:03;2.23;;;1.20;;
17361;SDS011;8798;51.938;4.348;2023-08-21T06:08:31;4.53;;;1.27;;
17361;SDS011;8798;51.938;4.348;2023-08-21T06:10:59;2.90;;;1.40;;
17361;SDS011;8798;51.938;4.348;2023-08-21T06:13:27;3.17;;;1.00;;
17361;SDS011;8798;51.938;4.348;2023-08-21T06:15:56;3.13;;;1.17;;
17361;SDS011;8798;51.938;4.348;2023-08-21T06:18:25;2.23;;;1.17;;
17361;SDS011;8798;51.938;4.348;2023-08-21T06:20:54;2.93;;;1.40;;
17361;SDS011;8798;51.938;4.348;2023-08-21T06:23:22;3.00;;;1.40;;
17361;SDS011;8798;51.938;4.348;2023-08-21T06:25:50;2.83;;;1.20;;
17361;SDS011;8798;51.938;4.348;2023-08-21T06:28:18;3.90;;;1.30;;
17361;SDS011;8798;51.938;4.348;2023-08-21T06:30:46;4.10;;;1.30;;
17361;SDS011;8798;51.938;4.348;2023-08-21T06:33:15;2.67;;;1.27;;
17361;SDS011;8798;51.938;4.348;2023-08-21T06:35:43;4.13;;;1.20;;
17361;SDS011;8798;51.938;4.348;2023-08-21T06:38:11;2.80;;;1.37;;
17361;SDS011;8798;51.938;4.348;2023-08-21T06:40:39;2.63;;;1.00;;
17361;SDS011;8798;51.938;4.348;2023-08-21T06:43:07;1.83;;;1.13;;
17361;SDS011;8798;51.938;4.348;2023-08-21T06:45:35;4.57;;;1.00;;
17361;SDS011;8798;51.938;4.348;2023-08-21T06:48:03;8.37;;;1.80;;
17361;SDS011;8798;51.938;4.348;2023-08-21T06:50:33;3.20;;;1.30;;
17361;SDS011;8798;51.938;4.348;2023-08-21T06:53:01;2.67;;;1.00;;
17361;SDS011;8798;51.938;4.348;2023-08-21T06:55:29;3.87;;;1.30;;
17361;SDS011;8798;51.938;4.348;2023-08-21T06:57:57;4.63;;;1.20;;
17361;SDS011;8798;51.938;4.348;2023-08-21T07:00:25;2.17;;;1.10;;
17361;SDS011;8798;51.938;4.348;2023-08-21T07:02:53;3.70;;;0.90;;
17361;SDS011;8798;51.938;4.348;2023-08-21T07:05:21;5.03;;;1.30;;
17361;SDS011;8798;51.938;4.348;2023-08-21T07:07:51;4.43;;;1.10;;
17361;SDS011;8798;51.938;4.348;2023-08-21T07:10:19;2.20;;;1.10;;
17361;SDS011;8798;51.938;4.348;2023-08-21T07:12:47;5.10;;;1.40;;
17361;SDS011;8798;51.938;4.348;2023-08-21T07:15:15;4.40;;;1.40;;
17361;SDS011;8798;51.938;4.348;2023-08-21T07:17:43;3.33;;;1.40;;
17361;SDS011;8798;51.938;4.348;2023-08-21T07:20:11;5.33;;;1.20;;
17361;SDS011;8798;51.938;4.348;2023-08-21T07:22:39;3.00;;;1.00;;
17361;SDS011;8798;51.938;4.348;2023-08-21T07:25:09;5.38;;;1.33;;
17361;SDS011;8798;51.938;4.348;2023-08-21T07:27:37;5.93;;;1.33;;
17361;SDS011;8798;51.938;4.348;2023-08-21T07:30:06;2.53;;;1.23;;
17361;SDS011;8798;51.938;4.348;2023-08-21T07:32:35;3.47;;;1.50;;
17361;SDS011;8798;51.938;4.348;2023-08-21T07:35:03;3.67;;;1.23;;
17361;SDS011;8798;51.938;4.348;2023-08-21T07:37:32;2.30;;;1.30;;
17361;SDS011;8798;51.938;4.348;2023-08-21T07:40:00;4.13;;;1.37;;
17361;SDS011;8798;51.938;4.348;2023-08-21T07:42:29;3.70;;;1.40;;
17361;SDS011;8798;51.938;4.348;2023-08-21T07:44:57;5.30;;;1.50;;
17361;SDS011;8798;51.938;4.348;2023-08-21T07:47:26;4.45;;;1.52;;
17361;SDS011;8798;51.938;4.348;2023-08-21T07:49:55;3.07;;;1.10;;
17361;SDS011;8798;51.938;4.348;2023-08-21T07:52:23;4.60;;;1.42;;
17361;SDS011;8798;51.938;4.348;2023-08-21T07:54:51;4.38;;;1.40;;
17361;SDS011;8798;51.938;4.348;2023-08-21T07:57:20;2.97;;;1.30;;
17361;SDS011;8798;51.938;4.348;2023-08-21T07:59:50;3.70;;;1.98;;
17361;SDS011;8798;51.938;4.348;2023-08-21T08:02:20;4.22;;;1.52;;
17361;SDS011;8798;51.938;4.348;2023-08-21T08:04:49;3.83;;;1.50;;
17361;SDS011;8798;51.938;4.348;2023-08-21T08:07:17;4.43;;;1.52;;
17361;SDS011;8798;51.938;4.348;2023-08-21T08:09:45;4.63;;;1.60;;
17361;SDS011;8798;51.938;4.348;2023-08-21T08:12:17;3.65;;;1.45;;
17361;SDS011;8798;51.938;4.348;2023-08-21T08:14:45;2.15;;;0.90;;
17361;SDS011;8798;51.938;4.348;2023-08-21T08:17:14;5.70;;;1.30;;
17361;SDS011;8798;51.938;4.348;2023-08-21T08:19:42;3.45;;;1.10;;
17361;SDS011;8798;51.938;4.348;2023-08-21T08:22:10;3.50;;;1.38;;
17361;SDS011;8798;51.938;4.348;2023-08-21T08:24:38;2.92;;;1.00;;
17361;SDS011;8798;51.938;4.348;2023-08-21T08:27:06;2.08;;;0.98;;
17361;SDS011;8798;51.938;4.348;2023-08-21T08:29:34;4.18;;;1.30;;
17361;SDS011;8798;51.938;4.348;2023-08-21T08:32:02;2.50;;;1.33;;
17361;SDS011;8798;51.938;4.348;2023-08-21T08:34:32;3.97;;;1.05;;
17361;SDS011;8798;51.938;4.348;2023-08-21T08:37:00;3.03;;;1.10;;
17361;SDS011;8798;51.938;4.348;2023-08-21T08:39:27;3.35;;;1.00;;
17361;SDS011;8798;51.938;4.348;2023-08-21T08:41:56;2.13;;;0.95;;
17361;SDS011;8798;51.938;4.348;2023-08-21T08:44:26;1.95;;;0.80;;
17361;SDS011;8798;51.938;4.348;2023-08-21T08:46:55;6.05;;;1.20;;
17361;SDS011;8798;51.938;4.348;2023-08-21T08:49:23;4.43;;;1.02;;
17361;SDS011;8798;51.938;4.348;2023-08-21T08:51:53;2.50;;;0.85;;
17361;SDS011;8798;51.938;4.348;2023-08-21T08:54:22;2.30;;;1.10;;
17361;SDS011;8798;51.938;4.348;2023-08-21T08:56:52;1.92;;;1.10;;
17361;SDS011;8798;51.938;4.348;2023-08-21T08:59:20;1.38;;;0.85;;
17361;SDS011;8798;51.938;4.348;2023-08-21T09:01:48;2.17;;;1.10;;
17361;SDS011;8798;51.938;4.348;2023-08-21T09:04:16;2.38;;;1.08;;
17361;SDS011;8798;51.938;4.348;2023-08-21T09:06:45;2.47;;;0.80;;
17361;SDS011;8798;51.938;4.348;2023-08-21T09:09:14;3.90;;;1.20;;
17361;SDS011;8798;51.938;4.348;2023-08-21T09:11:42;2.85;;;1.10;;
17361;SDS011;8798;51.938;4.348;2023-08-21T09:14:11;3.33;;;1.00;;
17361;SDS011;8798;51.938;4.348;2023-08-21T09:16:56;1.65;;;0.80;;
17361;SDS011;8798;51.938;4.348;2023-08-21T09:19:26;2.20;;;1.00;;
17361;SDS011;8798;51.938;4.348;2023-08-21T09:21:54;1.58;;;0.85;;
17361;SDS011;8798;51.938;4.348;2023-08-21T09:24:24;2.08;;;0.98;;
17361;SDS011;8798;51.938;4.348;2023-08-21T09:26:52;1.23;;;0.80;;
17361;SDS011;8798;51.938;4.348;2023-08-21T09:29:20;1.17;;;0.68;;
17361;SDS011;8798;51.938;4.348;2023-08-21T09:31:48;2.15;;;1.00;;
17361;SDS011;8798;51.938;4.348;2023-08-21T09:34:16;1.88;;;0.90;;
17361;SDS011;8798;51.938;4.348;2023-08-21T09:36:45;2.85;;;1.08;;
17361;SDS011;8798;51.938;4.348;2023-08-21T09:39:22;1.40;;;1.08;;
17361;SDS011;8798;51.938;4.348;2023-08-21T09:41:54;2.85;;;0.90;;
17361;SDS011;8798;51.938;4.348;2023-08-21T09:44:23;3.15;;;0.82;;
17361;SDS011;8798;51.938;4.348;2023-08-21T09:46:52;2.45;;;0.95;;
17361;SDS011;8798;51.938;4.348;2023-08-21T09:49:20;1.63;;;1.00;;
17361;SDS011;8798;51.938;4.348;2023-08-21T09:51:50;3.53;;;0.90;;
17361;SDS011;8798;51.938;4.348;2023-08-21T09:54:20;3.08;;;1.13;;
17361;SDS011;8798;51.938;4.348;2023-08-21T09:56:50;2.45;;;1.13;;
17361;SDS011;8798;51.938;4.348;2023-08-21T09:59:18;4.10;;;1.30;;
17361;SDS011;8798;51.938;4.348;2023-08-21T10:01:47;2.53;;;1.15;;
17361;SDS011;8798;51.938;4.348;2023-08-21T10:04:18;3.47;;;1.35;;
17361;SDS011;8798;51.938;4.348;2023-08-21T10:06:50;3.65;;;1.40;;
17361;SDS011;8798;51.938;4.348;2023-08-21T10:09:21;3.20;;;1.30;;
17361;SDS011;8798;51.938;4.348;2023-08-21T10:11:53;0.98;;;0.88;;
17361;SDS011;8798;51.938;4.348;2023-08-21T10:14:21;2.15;;;1.15;;
17361;SDS011;8798;51.938;4.348;2023-08-21T10:16:51;2.05;;;1.25;;
17361;SDS011;8798;51.938;4.348;2023-08-21T10:19:20;2.85;;;1.50;;
17361;SDS011;8798;51.938;4.348;2023-08-21T10:21:48;2.08;;;1.00;;
17361;SDS011;8798;51.938;4.348;2023-08-21T10:24:26;2.75;;;0.88;;
17361;SDS011;8798;51.938;4.348;2023-08-21T10:26:58;4.68;;;1.17;;
17361;SDS011;8798;51.938;4.348;2023-08-21T10:29:27;2.15;;;0.95;;
17361;SDS011;8798;51.938;4.348;2023-08-21T10:32:01;1.80;;;0.90;;
17361;SDS011;8798;51.938;4.348;2023-08-21T10:34:33;3.78;;;1.00;;
17361;SDS011;8798;51.938;4.348;2023-08-21T10:37:05;1.45;;;0.90;;
17361;SDS011;8798;51.938;4.348;2023-08-21T10:39:36;1.67;;;1.00;;
17361;SDS011;8798;51.938;4.348;2023-08-21T10:42:08;1.30;;;1.00;;
17361;SDS011;8798;51.938;4.348;2023-08-21T10:44:52;1.70;;;0.95;;
17361;SDS011;8798;51.938;4.348;2023-08-21T10:47:23;1.55;;;0.93;;
17361;SDS011;8798;51.938;4.348;2023-08-21T10:49:58;1.60;;;0.95;;
17361;SDS011;8798;51.938;4.348;2023-08-21T10:52:28;1.52;;;0.90;;
17361;SDS011;8798;51.938;4.348;2023-08-21T10:54:58;1.65;;;1.00;;
17361;SDS011;8798;51.938;4.348;2023-08-21T10:57:28;1.38;;;0.90;;
17361;SDS011;8798;51.938;4.348;2023-08-21T10:59:58;1.58;;;1.00;;
17361;SDS011;8798;51.938;4.348;2023-08-21T11:02:28;2.45;;;1.10;;
17361;SDS011;8798;51.938;4.348;2023-08-21T11:04:56;1.38;;;0.93;;
17361;SDS011;8798;51.938;4.348;2023-08-21T11:07:25;2.10;;;1.00;;
17361;SDS011;8798;51.938;4.348;2023-08-21T11:09:54;2.13;;;1.08;;
17361;SDS011;8798;51.938;4.348;2023-08-21T11:12:23;2.03;;;0.98;;
17361;SDS011;8798;51.938;4.348;2023-08-21T11:14:53;1.85;;;1.02;;
17361;SDS011;8798;51.938;4.348;2023-08-21T11:17:22;1.13;;;0.80;;
17361;SDS011;8798;51.938;4.348;2023-08-21T11:19:50;1.60;;;1.02;;
17361;SDS011;8798;51.938;4.348;2023-08-21T11:22:18;1.55;;;0.77;;
17361;SDS011;8798;51.938;4.348;2023-08-21T11:24:47;1.95;;;0.85;;
17361;SDS011;8798;51.938;4.348;2023-08-21T11:27:18;1.60;;;0.80;;
17361;SDS011;8798;51.938;4.348;2023-08-21T11:29:50;3.13;;;0.90;;
17361;SDS011;8798;51.938;4.348;2023-08-21T11:32:21;2.17;;;0.80;;
17361;SDS011;8798;51.938;4.348;2023-08-21T11:34:51;2.20;;;0.70;;
17361;SDS011;8798;51.938;4.348;2023-08-21T11:37:20;2.80;;;1.10;;
17361;SDS011;8798;51.938;4.348;2023-08-21T11:39:50;2.47;;;0.95;;
17361;SDS011;8798;51.938;4.348;2023-08-21T11:42:20;2.45;;;0.90;;
17361;SDS011;8798;51.938;4.348;2023-08-21T11:44:50;2.35;;;0.80;;
17361;SDS011;8798;51.938;4.348;2023-08-21T11:47:21;1.98;;;1.23;;
17361;SDS011;8798;51.938;4.348;2023-08-21T11:49:50;1.65;;;0.85;;
17361;SDS011;8798;51.938;4.348;2023-08-21T11:52:19;2.13;;;0.90;;
17361;SDS011;8798;51.938;4.348;2023-08-21T11:54:49;1.92;;;0.93;;
17361;SDS011;8798;51.938;4.348;2023-08-21T11:57:18;1.52;;;0.95;;
17361;SDS011;8798;51.938;4.348;2023-08-21T11:59:49;2.78;;;0.93;;
17361;SDS011;8798;51.938;4.348;2023-08-21T12:02:22;2.10;;;0.85;;
17361;SDS011;8798;51.938;4.348;2023-08-21T12:04:53;1.15;;;0.88;;
17361;SDS011;8798;51.938;4.348;2023-08-21T12:07:21;1.88;;;0.90;;
17361;SDS011;8798;51.938;4.348;2023-08-21T12:09:49;1.30;;;0.90;;
17361;SDS011;8798;51.938;4.348;2023-08-21T12:12:17;2.10;;;0.98;;
17361;SDS011;8798;51.938;4.348;2023-08-21T12:14:45;1.33;;;0.90;;
17361;SDS011;8798;51.938;4.348;2023-08-21T12:17:14;2.13;;;0.70;;
17361;SDS011;8798;51.938;4.348;2023-08-21T12:19:43;0.88;;;0.77;;
17361;SDS011;8798;51.938;4.348;2023-08-21T12:22:11;2.42;;;0.95;;
17361;SDS011;8798;51.938;4.348;2023-08-21T12:24:39;2.40;;;0.90;;
17361;SDS011;8798;51.938;4.348;2023-08-21T12:27:08;0.90;;;0.80;;
17361;SDS011;8798;51.938;4.348;2023-08-21T12:29:36;1.88;;;0.95;;
17361;SDS011;8798;51.938;4.348;2023-08-21T12:32:05;2.15;;;0.85;;
17361;SDS011;8798;51.938;4.348;2023-08-21T12:34:33;1.33;;;0.65;;
17361;SDS011;8798;51.938;4.348;2023-08-21T12:37:03;2.33;;;0.65;;
17361;SDS011;8798;51.938;4.348;2023-08-21T12:39:31;1.88;;;0.85;;
17361;SDS011;8798;51.938;4.348;2023-08-21T12:41:59;2.28;;;0.80;;
17361;SDS011;8798;51.938;4.348;2023-08-21T12:44:33;0.98;;;0.68;;
17361;SDS011;8798;51.938;4.348;2023-08-21T12:47:02;3.15;;;0.80;;
17361;SDS011;8798;51.938;4.348;2023-08-21T12:49:30;2.38;;;0.70;;
17361;SDS011;8798;51.938;4.348;2023-08-21T12:51:58;1.33;;;0.60;;
17361;SDS011;8798;51.938;4.348;2023-08-21T12:54:27;2.33;;;0.88;;
17361;SDS011;8798;51.938;4.348;2023-08-21T12:56:55;1.08;;;0.70;;
17361;SDS011;8798;51.938;4.348;2023-08-21T12:59:23;1.20;;;0.60;;
17361;SDS011;8798;51.938;4.348;2023-08-21T13:01:51;1.88;;;0.98;;
17361;SDS011;8798;51.938;4.348;2023-08-21T13:04:19;2.05;;;0.80;;
17361;SDS011;8798;51.938;4.348;2023-08-21T13:06:47;1.13;;;0.73;;
17361;SDS011;8798;51.938;4.348;2023-08-21T13:09:15;1.10;;;0.80;;
17361;SDS011;8798;51.938;4.348;2023-08-21T13:11:44;2.70;;;0.80;;
17361;SDS011;8798;51.938;4.348;2023-08-21T13:14:12;2.03;;;0.70;;
17361;SDS011;8798;51.938;4.348;2023-08-21T13:16:40;0.98;;;0.60;;
17361;SDS011;8798;51.938;4.348;2023-08-21T13:19:08;3.00;;;1.17;;
17361;SDS011;8798;51.938;4.348;2023-08-21T13:21:36;1.65;;;0.90;;
17361;SDS011;8798;51.938;4.348;2023-08-21T13:24:04;1.50;;;0.60;;
17361;SDS011;8798;51.938;4.348;2023-08-21T13:26:32;2.47;;;0.70;;
17361;SDS011;8798;51.938;4.348;2023-08-21T13:29:02;3.60;;;1.00;;
17361;SDS011;8798;51.938;4.348;2023-08-21T13:31:30;0.70;;;0.70;;
17361;SDS011;8798;51.938;4.348;2023-08-21T13:33:58;3.15;;;0.90;;
17361;SDS011;8798;51.938;4.348;2023-08-21T13:36:26;2.08;;;0.80;;
17361;SDS011;8798;51.938;4.348;2023-08-21T13:38:55;3.50;;;0.93;;
17361;SDS011;8798;51.938;4.348;2023-08-21T13:41:23;1.58;;;0.77;;
17361;SDS011;8798;51.938;4.348;2023-08-21T13:43:51;1.58;;;0.63;;
17361;SDS011;8798;51.938;4.348;2023-08-21T13:46:22;0.57;;;0.55;;
17361;SDS011;8798;51.938;4.348;2023-08-21T13:48:50;2.08;;;0.90;;
17361;SDS011;8798;51.938;4.348;2023-08-21T13:51:18;1.48;;;0.70;;
17361;SDS011;8798;51.938;4.348;2023-08-21T13:53:47;1.20;;;0.70;;
17361;SDS011;8798;51.938;4.348;2023-08-21T13:56:15;4.03;;;0.73;;
17361;SDS011;8798;51.938;4.348;2023-08-21T13:58:43;2.08;;;0.90;;
17361;SDS011;8798;51.938;4.348;2023-08-21T14:01:12;1.35;;;0.80;;
17361;SDS011;8798;51.938;4.348;2023-08-21T14:03:41;1.52;;;0.90;;
17361;SDS011;8798;51.938;4.348;2023-08-21T14:06:09;1.17;;;0.60;;
17361;SDS011;8798;51.938;4.348;2023-08-21T14:08:38;0.50;;;0.50;;
17361;SDS011;8798;51.938;4.348;2023-08-21T14:11:06;1.27;;;0.60;;
17361;SDS011;8798;51.938;4.348;2023-08-21T14:13:34;1.55;;;0.80;;
17361;SDS011;8798;51.938;4.348;2023-08-21T14:16:02;1.98;;;0.80;;
17361;SDS011;8798;51.938;4.348;2023-08-21T14:18:30;1.02;;;0.65;;
17361;SDS011;8798;51.938;4.348;2023-08-21T14:21:00;1.00;;;0.68;;
17361;SDS011;8798;51.938;4.348;2023-08-21T14:23:29;1.60;;;0.75;;
17361;SDS011;8798;51.938;4.348;2023-08-21T14:25:59;1.58;;;0.70;;
17361;SDS011;8798;51.938;4.348;2023-08-21T14:28:28;1.00;;;0.70;;
17361;SDS011;8798;51.938;4.348;2023-08-21T14:30:56;1.00;;;0.60;;
17361;SDS011;8798;51.938;4.348;2023-08-21T14:33:24;0.57;;;0.57;;
17361;SDS011;8798;51.938;4.348;2023-08-21T14:35:52;1.38;;;0.60;;
17361;SDS011;8798;51.938;4.348;2023-08-21T14:38:21;1.83;;;0.73;;
17361;SDS011;8798;51.938;4.348;2023-08-21T14:40:51;1.38;;;0.65;;
17361;SDS011;8798;51.938;4.348;2023-08-21T14:43:20;1.70;;;0.70;;
17361;SDS011;8798;51.938;4.348;2023-08-21T14:45:48;1.40;;;0.65;;
17361;SDS011;8798;51.938;4.348;2023-08-21T14:48:16;2.33;;;0.70;;
17361;SDS011;8798;51.938;4.348;2023-08-21T14:50:44;1.20;;;0.70;;
17361;SDS011;8798;51.938;4.348;2023-08-21T14:53:12;3.42;;;0.70;;
17361;SDS011;8798;51.938;4.348;2023-08-21T14:55:42;1.90;;;0.70;;
17361;SDS011;8798;51.938;4.348;2023-08-21T14:58:10;3.53;;;0.80;;
17361;SDS011;8798;51.938;4.348;2023-08-21T15:00:38;1.33;;;0.60;;
17361;SDS011;8798;51.938;4.348;2023-08-21T15:03:06;1.40;;;0.60;;
17361;SDS011;8798;51.938;4.348;2023-08-21T15:05:34;1.10;;;0.75;;
17361;SDS011;8798;51.938;4.348;2023-08-21T15:08:02;1.98;;;0.80;;
17361;SDS011;8798;51.938;4.348;2023-08-21T15:10:30;1.02;;;0.57;;